createdAt,value
2022-08-09T00:00:11.414Z,102230.31
2022-08-09T00:02:42.936Z,102239.88
2022-08-09T00:06:18.918Z,102243.00
2022-08-09T00:08:09.744Z,102239.16
2022-08-09T00:10:40.560Z,102233.94
2022-08-09T00:13:17.174Z,102236.78
2022-08-09T00:15:58.922Z,102222.00
2022-08-09T00:18:31.270Z,102229.31
2022-08-09T00:20:58.379Z,102228.44
2022-08-09T00:23:57.368Z,102233.09
2022-08-09T00:26:12.320Z,102226.75
2022-08-09T00:28:41.353Z,102227.28
2022-08-09T00:31:30.599Z,102228.47
2022-08-09T00:33:55.819Z,102238.41
2022-08-09T00:36:27.131Z,102231.47
2022-08-09T00:38:56.767Z,102234.25
2022-08-09T00:44:14.737Z,102227.69
2022-08-09T00:44:25.676Z,102230.97
2022-08-09T00:46:57.740Z,102208.75
2022-08-09T00:49:36.989Z,102232.03
2022-08-09T00:52:17.718Z,102228.50
2022-08-09T00:54:46.204Z,102235.44
2022-08-09T00:57:13.721Z,102220.28
2022-08-09T00:59:52.685Z,102233.59
2022-08-09T01:02:22.846Z,102230.25
2022-08-09T01:05:13.956Z,102228.69
2022-08-09T01:08:48.776Z,102236.94
2022-08-09T01:11:55.788Z,102234.69
2022-08-09T01:15:01.038Z,102234.88
2022-08-09T01:17:47.081Z,102240.09
2022-08-09T01:20:49.502Z,102211.41
2022-08-09T01:24:05.033Z,102237.97
2022-08-09T01:27:08.701Z,102247.78
2022-08-09T01:30:28.858Z,102244.72
2022-08-09T01:33:02.434Z,102246.59
2022-08-09T01:35:51.921Z,102244.13
2022-08-09T01:38:35.835Z,102241.84
2022-08-09T01:41:13.394Z,102241.59
2022-08-09T01:43:50.899Z,102246.66
2022-08-09T01:46:28.180Z,102232.25
2022-08-09T01:49:10.285Z,102242.13
2022-08-09T01:51:53.539Z,102237.72
2022-08-09T01:54:33.004Z,102243.38
2022-08-09T01:57:14.998Z,102243.00
2022-08-09T01:59:52.130Z,102247.31
2022-08-09T02:02:30.793Z,102249.63
2022-08-09T02:05:05.653Z,102245.09
2022-08-09T02:08:40.276Z,102249.44
2022-08-09T02:10:50.709Z,102255.31
2022-08-09T02:13:22.140Z,102245.38
2022-08-09T02:15:56.410Z,102244.06
2022-08-09T02:18:28.376Z,102220.03
2022-08-09T02:21:09.454Z,102243.38
2022-08-09T02:23:49.519Z,102253.31
2022-08-09T02:26:26.722Z,102263.28
2022-08-09T02:29:00.379Z,102261.22
2022-08-09T02:31:40.766Z,102249.72
2022-08-09T02:34:38.702Z,102234.75
2022-08-09T02:37:06.733Z,102250.28
2022-08-09T02:39:45.241Z,102253.31
2022-08-09T02:42:24.825Z,102247.16
2022-08-09T02:44:59.047Z,102246.44
2022-08-09T02:47:28.769Z,102242.91
2022-08-09T02:50:11.744Z,102247.22
2022-08-09T02:52:57.801Z,102245.09
2022-08-09T02:55:46.735Z,102242.31
2022-08-09T02:58:36.304Z,102239.25
2022-08-09T03:01:10.855Z,102249.28
2022-08-09T03:04:16.514Z,102242.28
2022-08-09T03:06:29.184Z,102243.91
2022-08-09T03:08:57.581Z,102243.47
2022-08-09T03:12:05.281Z,102250.63
2022-08-09T03:14:14.005Z,102245.97
2022-08-09T03:16:47.593Z,102243.41
2022-08-09T03:19:59.240Z,102251.59
2022-08-09T03:22:11.935Z,102247.88
2022-08-09T03:24:52.132Z,102242.50
2022-08-09T03:27:21.511Z,102252.22
2022-08-09T03:29:57.595Z,102252.44
2022-08-09T03:32:31.921Z,102249.50
2022-08-09T03:35:00.374Z,102255.16
2022-08-09T03:37:55.269Z,102259.72
2022-08-09T03:40:17.038Z,102260.03
2022-08-09T03:42:45.788Z,102253.38
2022-08-09T03:45:13.710Z,102266.16
2022-08-09T03:47:46.804Z,102255.88
2022-08-09T03:50:18.717Z,102262.00
2022-08-09T03:52:59.646Z,102259.78
2022-08-09T03:55:27.141Z,102262.75
2022-08-09T03:58:06.728Z,102271.59
2022-08-09T04:00:45.762Z,102268.19
2022-08-09T04:03:24.505Z,102267.31
2022-08-09T04:06:04.482Z,102273.72
2022-08-09T04:08:33.165Z,102277.31
2022-08-09T04:11:01.407Z,102270.38
2022-08-09T04:14:36.968Z,102268.78
2022-08-09T04:16:19.267Z,102276.56
2022-08-09T04:18:47.063Z,102269.63
2022-08-09T04:21:16.104Z,102287.28
2022-08-09T04:23:54.552Z,102289.84
2022-08-09T04:26:25.260Z,102295.56
2022-08-09T04:29:10.891Z,102300.28
2022-08-09T04:31:47.124Z,102292.69
2022-08-09T04:34:19.179Z,102295.19
2022-08-09T04:36:57.667Z,102301.72
2022-08-09T04:39:24.505Z,102302.47
2022-08-09T04:41:51.338Z,102310.72
2022-08-09T04:44:18.187Z,102297.09
2022-08-09T04:46:58.342Z,102307.53
2022-08-09T04:49:52.196Z,102296.59
2022-08-09T04:52:27.501Z,102309.56
2022-08-09T04:55:00.559Z,102309.97
2022-08-09T04:57:58.801Z,102317.09
2022-08-09T05:00:16.703Z,102317.44
2022-08-09T05:02:44.295Z,102325.34
2022-08-09T05:05:31.506Z,102317.75
2022-08-09T05:08:05.474Z,102321.06
2022-08-09T05:10:34.197Z,102326.38
2022-08-09T05:13:03.793Z,102324.44
2022-08-09T05:15:39.288Z,102316.59
2022-08-09T05:18:38.838Z,102320.06
2022-08-09T05:21:02.622Z,102306.69
2022-08-09T05:23:55.697Z,102303.75
2022-08-09T05:26:35.285Z,102325.34
2022-08-09T05:29:04.965Z,102335.72
2022-08-09T05:31:44.087Z,102295.25
2022-08-09T05:34:16.944Z,102333.13
2022-08-09T05:36:47.353Z,102329.34
2022-08-09T05:39:21.702Z,102336.00
2022-08-09T05:41:56.550Z,102330.53
2022-08-09T05:44:29.191Z,102332.84
2022-08-09T05:47:00.492Z,102334.50
2022-08-09T05:50:30.683Z,102339.53
2022-08-09T05:52:14.575Z,102337.25
2022-08-09T05:54:42.269Z,102338.00
2022-08-09T05:57:12.793Z,102339.69
2022-08-09T05:59:41.809Z,102334.63
2022-08-09T06:02:10.041Z,102333.88
2022-08-09T06:04:36.991Z,102336.78
2022-08-09T06:07:21.373Z,102338.00
2022-08-09T06:10:01.839Z,102350.09
2022-08-09T06:12:30.565Z,102354.91
2022-08-09T06:15:01.009Z,102348.09
2022-08-09T06:17:39.959Z,102342.56
2022-08-09T06:20:08.631Z,102355.06
2022-08-09T06:22:36.259Z,102350.91
2022-08-09T06:25:03.976Z,102356.13
2022-08-09T06:27:42.956Z,102358.72
2022-08-09T06:30:16.259Z,102359.38
2022-08-09T06:32:59.822Z,102364.84
2022-08-09T06:35:56.044Z,102368.34
2022-08-09T06:38:19.593Z,102374.47
2022-08-09T06:40:58.700Z,102365.34
2022-08-09T06:43:27.206Z,102371.78
2022-08-09T06:46:07.540Z,102360.41
2022-08-09T06:48:42.752Z,102383.53
2022-08-09T06:51:14.811Z,102385.81
2022-08-09T06:53:41.700Z,102385.22
2022-08-09T06:56:09.628Z,102381.22
2022-08-09T07:00:52.181Z,102392.06
2022-08-09T07:01:27.459Z,102381.47
2022-08-09T07:04:03.878Z,102393.69
2022-08-09T07:06:31.061Z,102390.59
2022-08-09T07:08:58.194Z,102385.38
2022-08-09T07:11:25.569Z,102398.94
2022-08-09T07:14:04.244Z,102396.97
2022-08-09T07:16:42.790Z,102397.25
2022-08-09T07:19:23.002Z,102394.44
2022-08-09T07:21:57.345Z,102392.44
2022-08-09T07:24:31.441Z,102388.41
2022-08-09T07:27:01.312Z,102384.25
2022-08-09T07:29:30.789Z,102390.97
2022-08-09T07:32:05.946Z,102387.75
2022-08-09T07:34:32.683Z,102364.97
2022-08-09T07:37:02.831Z,102386.81
2022-08-09T07:39:41.360Z,102392.56
2022-08-09T07:42:09.440Z,102394.72
2022-08-09T07:44:50.900Z,102383.44
2022-08-09T07:47:29.615Z,102391.78
2022-08-09T07:50:09.429Z,102377.66
2022-08-09T07:52:38.042Z,102389.97
2022-08-09T07:55:09.494Z,102392.09
2022-08-09T07:57:46.942Z,102388.06
2022-08-09T08:00:20.492Z,102378.72
2022-08-09T08:03:01.857Z,102389.94
2022-08-09T08:05:54.363Z,102391.41
2022-08-09T08:09:02.065Z,102391.34
2022-08-09T08:12:19.801Z,102382.97
2022-08-09T08:13:55.947Z,102396.31
2022-08-09T08:16:29.520Z,102395.09
2022-08-09T08:18:57.895Z,102380.47
2022-08-09T08:21:25.228Z,102385.50
2022-08-09T08:23:56.175Z,102384.69
2022-08-09T08:26:26.726Z,102384.97
2022-08-09T08:29:08.940Z,102383.22
2022-08-09T08:31:56.551Z,102387.78
2022-08-09T08:34:25.651Z,102374.94
2022-08-09T08:36:52.699Z,102387.00
2022-08-09T08:39:22.053Z,102390.00
2022-08-09T08:41:51.610Z,102388.06
2022-08-09T08:44:26.853Z,102390.59
2022-08-09T08:47:03.154Z,102391.25
2022-08-09T08:49:48.390Z,102382.50
2022-08-09T08:52:58.182Z,102377.69
2022-08-09T08:55:06.141Z,102393.66
2022-08-09T08:57:34.777Z,102384.72
2022-08-09T09:00:02.428Z,102395.41
2022-08-09T09:02:36.098Z,102388.25
2022-08-09T09:05:10.197Z,102393.22
2022-08-09T09:07:42.895Z,102396.56
2022-08-09T09:10:12.282Z,102396.47
2022-08-09T09:12:41.808Z,102399.66
2022-08-09T09:15:09.955Z,102390.84
2022-08-09T09:17:49.446Z,102387.59
2022-08-09T09:20:20.596Z,102391.47
2022-08-09T09:22:56.073Z,102385.31
2022-08-09T09:26:01.879Z,102380.16
2022-08-09T09:29:03.891Z,102362.19
2022-08-09T09:32:03.570Z,102385.72
2022-08-09T09:34:24.196Z,102380.44
2022-08-09T09:37:00.226Z,102368.28
2022-08-09T09:39:54.929Z,102370.28
2022-08-09T09:42:27.667Z,102382.53
2022-08-09T09:45:08.097Z,102368.03
2022-08-09T09:47:47.702Z,102357.31
2022-08-09T09:50:42.086Z,102347.22
2022-08-09T09:53:57.628Z,102344.69
2022-08-09T09:56:30.875Z,102341.84
2022-08-09T09:58:58.480Z,102374.94
2022-08-09T10:01:31.332Z,102347.22
2022-08-09T10:04:31.036Z,102379.13
2022-08-09T10:06:58.881Z,102380.78
2022-08-09T10:09:49.014Z,102373.19
2022-08-09T10:12:31.457Z,102371.94
2022-08-09T10:15:17.233Z,102370.13
2022-08-09T10:17:56.725Z,102358.13
2022-08-09T10:20:32.479Z,102365.28
2022-08-09T10:23:22.770Z,102364.06
2022-08-09T10:26:07.956Z,102348.59
2022-08-09T10:28:40.538Z,102370.50
2022-08-09T10:34:10.101Z,102360.97
2022-08-09T10:36:45.601Z,102359.94
2022-08-09T10:39:15.553Z,102358.28
2022-08-09T10:41:47.650Z,102356.56
2022-08-09T10:44:21.754Z,102354.53
2022-08-09T10:48:26.052Z,102356.22
2022-08-09T10:50:31.283Z,102339.53
2022-08-09T10:53:54.718Z,102333.09
2022-08-09T10:56:28.598Z,102343.75
2022-08-09T10:58:59.372Z,102328.22
2022-08-09T11:03:15.623Z,102347.47
2022-08-09T11:04:30.423Z,102338.59
2022-08-09T11:06:59.582Z,102340.59
2022-08-09T11:09:41.227Z,102346.59
2022-08-09T11:12:29.970Z,102335.63
2022-08-09T11:15:19.844Z,102342.06
2022-08-09T11:18:02.774Z,102342.09
2022-08-09T11:20:50.229Z,102334.78
2022-08-09T11:23:17.069Z,102206.03
2022-08-09T11:25:51.089Z,102340.59
2022-08-09T11:28:38.859Z,102340.25
2022-08-09T11:31:43.321Z,102343.00
2022-08-09T11:34:42.887Z,102324.63
2022-08-09T11:37:18.051Z,102336.94
2022-08-09T11:40:06.324Z,102337.84
2022-08-09T11:42:50.053Z,102320.72
2022-08-09T11:45:42.109Z,102335.69
2022-08-09T11:48:19.326Z,102338.66
2022-08-09T11:52:49.109Z,102328.47
2022-08-09T11:54:00.351Z,102328.56
2022-08-09T11:56:41.904Z,102326.31
2022-08-09T11:59:12.113Z,102332.03
2022-08-09T12:02:16.110Z,102319.59
2022-08-09T12:04:32.653Z,102333.00
2022-08-09T12:07:08.397Z,102333.75
2022-08-09T12:09:36.368Z,102338.13
2022-08-09T12:12:12.156Z,102336.50
2022-08-09T12:15:03.781Z,102333.31
2022-08-09T12:17:42.882Z,102311.91
2022-08-09T12:20:21.951Z,102321.81
2022-08-09T12:22:58.357Z,102324.44
2022-08-09T12:25:36.180Z,102315.88
2022-08-09T12:29:10.435Z,102323.69
2022-08-09T12:31:57.862Z,102300.25
2022-08-09T12:34:31.361Z,102307.47
2022-08-09T12:37:21.864Z,102309.81
2022-08-09T12:40:12.097Z,102312.06
2022-08-09T12:42:44.267Z,102302.09
2022-08-09T12:45:32.438Z,102306.56
2022-08-09T12:47:59.095Z,102306.72
2022-08-09T12:50:25.980Z,102299.78
2022-08-09T12:53:08.790Z,102302.94
2022-08-09T12:56:15.617Z,102300.78
2022-08-09T12:58:27.715Z,102288.13
2022-08-09T13:00:56.456Z,102283.88
2022-08-09T13:03:53.825Z,102287.06
2022-08-09T13:06:42.128Z,102286.16
2022-08-09T13:09:21.670Z,102295.09
2022-08-09T13:12:01.920Z,102286.03
2022-08-09T13:14:43.615Z,102276.09
2022-08-09T13:17:25.723Z,102286.44
2022-08-09T13:20:17.414Z,102282.88
2022-08-09T13:23:01.762Z,102280.91
2022-08-09T13:25:53.367Z,102277.97
2022-08-09T13:28:33.777Z,102276.69
2022-08-09T13:32:15.827Z,102283.31
2022-08-09T13:33:58.816Z,102276.72
2022-08-09T13:36:42.196Z,102280.72
2022-08-09T13:41:19.276Z,102282.75
2022-08-09T13:42:12.451Z,102273.81
2022-08-09T13:44:42.676Z,102274.38
2022-08-09T13:47:30.778Z,102241.56
2022-08-09T13:50:12.872Z,102274.41
2022-08-09T13:52:47.585Z,102239.19
2022-08-09T13:55:15.354Z,102270.59
2022-08-09T13:57:55.976Z,102271.13
2022-08-09T14:00:28.526Z,102261.97
2022-08-09T14:03:03.809Z,102270.28
2022-08-09T14:06:00.375Z,102267.78
2022-08-09T14:08:32.252Z,102249.03
2022-08-09T14:11:00.303Z,102263.06
2022-08-09T14:14:23.292Z,102256.41
2022-08-09T14:16:18.964Z,102260.44
2022-08-09T14:18:49.471Z,102258.44
2022-08-09T14:21:24.091Z,102265.94
2022-08-09T14:23:54.933Z,102251.38
2022-08-09T14:26:30.178Z,102264.59
2022-08-09T14:29:03.436Z,102276.53
2022-08-09T14:31:36.071Z,102274.59
2022-08-09T14:34:31.112Z,102270.28
2022-08-09T14:37:02.198Z,102259.66
2022-08-09T14:39:40.349Z,102267.56
2022-08-09T14:42:29.088Z,102269.03
2022-08-09T14:46:39.171Z,102271.78
2022-08-09T14:47:57.267Z,102259.22
2022-08-09T14:50:32.323Z,102257.53
2022-08-09T14:53:11.277Z,102259.72
2022-08-09T14:55:47.680Z,102264.84
2022-08-09T14:58:16.756Z,102249.19
2022-08-09T15:00:47.982Z,102246.84
2022-08-09T15:03:20.403Z,102252.53
2022-08-09T15:05:51.434Z,102246.50
2022-08-09T15:08:24.210Z,102255.38
2022-08-09T15:11:00.393Z,102255.56
2022-08-09T15:13:29.817Z,102258.25
2022-08-09T15:16:15.598Z,102258.84
2022-08-09T15:18:42.301Z,102257.84
2022-08-09T15:22:01.268Z,102248.28
2022-08-09T15:24:09.023Z,102257.22
2022-08-09T15:26:46.433Z,102244.31
2022-08-09T15:30:57.629Z,102237.16
2022-08-09T15:32:00.773Z,102208.84
2022-08-09T15:34:34.223Z,102243.09
2022-08-09T15:37:03.876Z,102239.38
2022-08-09T15:39:32.267Z,102215.06
2022-08-09T15:42:13.113Z,102240.91
2022-08-09T15:44:41.853Z,102210.06
2022-08-09T15:47:13.992Z,102226.44
2022-08-09T15:49:41.334Z,102211.56
2022-08-09T15:52:27.631Z,102233.13
2022-08-09T15:54:54.518Z,102232.47
2022-08-09T15:57:35.680Z,102221.97
2022-08-09T16:00:24.361Z,102231.03
2022-08-09T16:02:56.087Z,102230.97
2022-08-09T16:05:47.238Z,102232.72
2022-08-09T16:08:30.114Z,102224.78
2022-08-09T16:11:04.685Z,102231.63
2022-08-09T16:14:04.216Z,102227.88
2022-08-09T16:16:26.166Z,102211.69
2022-08-09T16:18:55.017Z,102207.94
2022-08-09T16:21:25.844Z,102210.34
2022-08-09T16:23:58.751Z,102193.72
2022-08-09T16:26:34.901Z,102199.00
2022-08-09T16:29:21.313Z,102212.59
2022-08-09T16:32:18.961Z,102205.72
2022-08-09T16:34:57.896Z,102201.84
2022-08-09T16:37:55.766Z,102210.38
2022-08-09T16:40:20.711Z,102212.31
2022-08-09T16:43:04.349Z,102203.25
2022-08-09T16:45:32.064Z,102217.94
2022-08-09T16:48:39.566Z,102219.53
2022-08-09T16:50:58.742Z,102220.16
2022-08-09T16:53:32.298Z,102206.19
2022-08-09T16:56:03.625Z,102130.31
2022-08-09T16:58:36.754Z,102224.38
2022-08-09T17:01:04.635Z,102219.09
2022-08-09T17:03:31.652Z,102156.91
2022-08-09T17:06:07.321Z,102188.72
2022-08-09T17:09:02.932Z,102182.41
2022-08-09T17:11:40.430Z,102224.09
2022-08-09T17:14:26.312Z,102223.28
2022-08-09T17:17:01.157Z,102203.22
2022-08-09T17:19:47.272Z,102220.97
2022-08-09T17:22:35.718Z,102201.28
2022-08-09T17:25:10.019Z,102202.16
2022-08-09T17:27:39.647Z,102228.47
2022-08-09T17:30:16.431Z,102181.66
2022-08-09T17:32:45.268Z,102152.41
2022-08-09T17:35:14.236Z,102228.03
2022-08-09T17:38:11.705Z,102238.53
2022-08-09T17:40:32.117Z,102241.59
2022-08-09T17:43:32.991Z,102233.31
2022-08-09T17:46:03.681Z,102240.72
2022-08-09T17:48:40.173Z,102224.16
2022-08-09T17:51:18.709Z,102232.31
2022-08-09T17:53:54.765Z,102245.75
2022-08-09T17:56:29.292Z,102177.31
2022-08-09T17:59:15.963Z,102203.78
2022-08-09T18:02:07.606Z,102162.25
2022-08-09T18:04:34.826Z,102228.88
2022-08-09T18:07:04.768Z,102219.19
2022-08-09T18:09:40.687Z,102251.91
2022-08-09T18:12:17.903Z,102156.25
2022-08-09T18:14:56.563Z,102265.41
2022-08-09T18:18:02.705Z,102261.66
2022-08-09T18:20:54.251Z,102265.94
2022-08-09T18:23:04.868Z,102269.59
2022-08-09T18:25:50.563Z,102260.22
2022-08-09T18:30:42.992Z,102270.41
2022-08-09T18:31:14.513Z,102260.94
2022-08-09T18:33:43.274Z,102256.16
2022-08-09T18:36:26.040Z,102266.75
2022-08-09T18:39:07.246Z,102250.38
2022-08-09T18:41:52.811Z,102261.94
2022-08-09T18:44:25.701Z,102280.16
2022-08-09T18:47:07.923Z,102260.06
2022-08-09T18:49:43.385Z,102256.28
2022-08-09T18:52:16.103Z,102276.28
2022-08-09T18:54:52.688Z,102286.53
2022-08-09T18:57:22.787Z,102288.22
2022-08-09T18:59:55.310Z,102285.00
2022-08-09T19:02:32.338Z,102276.06
2022-08-09T19:05:14.215Z,102293.81
2022-08-09T19:07:59.021Z,102297.00
2022-08-09T19:10:29.549Z,102299.91
2022-08-09T19:13:20.727Z,102282.78
2022-08-09T19:15:55.794Z,102307.22
2022-08-09T19:18:34.063Z,102317.25
2022-08-09T19:21:09.117Z,102313.97
2022-08-09T19:24:32.368Z,102289.03
2022-08-09T19:26:31.014Z,102299.34
2022-08-09T19:29:15.448Z,102274.31
2022-08-09T19:31:51.125Z,102321.63
2022-08-09T19:34:22.880Z,102317.91
2022-08-09T19:36:56.057Z,102312.44
2022-08-09T19:40:02.555Z,102321.00
2022-08-09T19:42:19.590Z,102327.38
2022-08-09T19:44:51.468Z,102331.50
2022-08-09T19:47:23.332Z,102335.34
2022-08-09T19:50:08.711Z,102306.47
2022-08-09T19:52:37.678Z,102325.06
2022-08-09T19:55:16.755Z,102336.13
2022-08-09T19:57:46.398Z,102318.50
2022-08-09T20:00:16.202Z,102339.84
2022-08-09T20:04:09.629Z,102321.88
2022-08-09T20:05:46.718Z,102331.59
2022-08-09T20:08:33.358Z,102311.63
2022-08-09T20:11:04.497Z,102325.53
2022-08-09T20:13:37.058Z,102334.59
2022-08-09T20:16:37.459Z,102321.44
2022-08-09T20:19:42.622Z,102317.84
2022-08-09T20:21:56.588Z,102344.47
2022-08-09T20:24:32.069Z,102329.81
2022-08-09T20:27:07.965Z,102337.13
2022-08-09T20:29:37.289Z,102346.75
2022-08-09T20:32:29.736Z,102346.50
2022-08-09T20:34:59.425Z,102344.63
2022-08-09T20:38:08.700Z,102338.50
2022-08-09T20:40:19.272Z,102348.47
2022-08-09T20:43:00.457Z,102329.16
2022-08-09T20:45:59.592Z,102355.06
2022-08-09T20:48:31.056Z,102357.00
2022-08-09T20:51:01.016Z,102365.00
2022-08-09T20:53:35.838Z,102359.00
2022-08-09T20:56:08.811Z,102352.03
2022-08-09T20:58:36.089Z,102337.66
2022-08-09T21:01:33.225Z,102349.91
2022-08-09T21:05:49.166Z,102355.41
2022-08-09T21:06:45.402Z,102338.94
2022-08-09T21:09:13.738Z,102364.72
2022-08-09T21:14:31.216Z,102356.38
2022-08-09T21:17:00.393Z,102354.06
2022-08-09T21:20:17.938Z,102357.38
2022-08-09T21:22:38.100Z,102373.22
2022-08-09T21:25:20.947Z,102368.66
2022-08-09T21:27:52.625Z,102371.81
2022-08-09T21:30:22.131Z,102372.53
2022-08-09T21:32:51.182Z,102348.97
2022-08-09T21:35:18.866Z,102371.84
2022-08-09T21:37:59.229Z,102370.19
2022-08-09T21:40:30.427Z,102359.53
2022-08-09T21:43:00.855Z,102370.59
2022-08-09T21:45:27.976Z,102372.97
2022-08-09T21:47:55.655Z,102377.47
2022-08-09T21:50:33.827Z,102384.00
2022-08-09T21:53:15.604Z,102386.69
2022-08-09T21:55:54.319Z,102380.13
2022-08-09T21:58:21.081Z,102389.91
2022-08-09T22:00:55.909Z,102380.97
2022-08-09T22:03:25.477Z,102391.84
2022-08-09T22:05:54.256Z,102395.50
2022-08-09T22:08:22.966Z,102394.97
2022-08-09T22:11:00.750Z,102397.19
2022-08-09T22:13:42.285Z,102390.16
2022-08-09T22:16:11.564Z,102398.44
2022-08-09T22:18:54.390Z,102395.03
2022-08-09T22:21:49.660Z,102392.34
2022-08-09T22:24:20.854Z,102391.81
2022-08-09T22:29:19.212Z,102374.16
2022-08-09T22:31:56.249Z,102400.09
2022-08-09T22:34:26.693Z,102405.78
2022-08-09T22:36:58.784Z,102410.22
2022-08-09T22:39:55.706Z,102406.47
2022-08-09T22:42:20.794Z,102400.03
2022-08-09T22:45:00.178Z,102398.88
2022-08-09T22:48:17.012Z,102398.16
2022-08-09T22:50:23.283Z,102405.25
2022-08-09T22:52:54.953Z,102400.22
2022-08-09T22:55:39.506Z,102407.03
2022-08-09T22:58:20.433Z,102402.03
2022-08-09T23:01:00.561Z,102417.25
2022-08-09T23:03:31.220Z,102399.94
2022-08-09T23:06:35.158Z,102422.81
2022-08-09T23:09:05.776Z,102427.09
2022-08-09T23:11:32.742Z,102416.22
2022-08-09T23:13:59.648Z,102426.44
2022-08-09T23:16:26.309Z,102423.81
2022-08-09T23:18:52.961Z,102429.25
2022-08-09T23:21:24.553Z,102419.38
2022-08-09T23:24:05.358Z,102402.75
2022-08-09T23:26:34.701Z,102412.72
2022-08-09T23:29:01.370Z,102427.31
2022-08-09T23:31:28.059Z,102410.75
2022-08-09T23:33:54.672Z,102427.38
2022-08-09T23:36:21.316Z,102430.72
2022-08-09T23:38:48.862Z,102429.94
2022-08-09T23:41:28.530Z,102421.75
2022-08-09T23:44:01.899Z,102409.59
2022-08-09T23:46:30.698Z,102423.88
2022-08-09T23:48:58.687Z,102421.19
2022-08-09T23:51:25.580Z,102424.34
2022-08-09T23:53:55.090Z,102417.06
2022-08-09T23:56:52.118Z,102420.31
2022-08-09T23:59:09.103Z,102420.06
